Whittier, CA

4:28 PM PST on February 26, 2017 (GMT -0800)
Doug Ray's Weather Service - Whittier, CA | | Change Station

Elev 141 ft 33.95 °N, 118.04 °W | Updated 58 seconds ago

Mostly Cloudy
Mostly Cloudy
55.3 °F
Feels Like 55.3 °F
N
4.0
Wind Variable Wind from SE
Gusts 7.0 mph

Today
High -- | Low -- °F
--% Chance of Precip.
Yesterday
High -- | Low -- °F
Precip. -- in
Pressure 29.94 in
Visibility 10.0 miles
Clouds Mostly Cloudy 2100 ft
Mostly Cloudy 4400 ft
Dew Point 48 °F
Humidity 76%
Rainfall Not available.
Snow Depth Not available.
6:24 AM 5:46 PM
New Moon, 0% visible
METAR KFUL 262353Z 18005KT 10SM BKN021 BKN044 13/09 A2994 RMK AO2 SLP139 60004 T01280089 10144 20117 55009
Pressure 29.94 in
Visibility 10.0 miles
Clouds Mostly Cloudy 2100 ft
Mostly Cloudy 4400 ft
Dew Point 48 °F
Humidity 76%
Rainfall Not available.
Snow Depth Not available.
6:24 AM 5:46 PM
New Moon, 0% visible
METAR KFUL 262353Z 18005KT 10SM BKN021 BKN044 13/09 A2994 RMK AO2 SLP139 60004 T01280089 10144 20117 55009

Get Your Daily Forecast Email!

Thanks for signing up!

Be on the lookout for a verification email in your inbox.

You'll start receiving the daily forecast at 8 AM.

×

10-Day Weather Forecast

Almanac

Astronomy

Feb. 26, 2017 Rise Set
Actual Time
Civil Twilight
Nautical Twilight
Astronomical Twilight
Moon
Length of Visible Light
Length of Day
Tomorrow will be .
, % of the Moon is Illuminated

Today's Extremes

State Highs State Lows

Community

WunderPhotos

Upload Photos

1,962,540 photos uploaded!

WunderBlog® & News

Nearby

Air Quality

  Air Quality AQ Index Pollutant
Not available.

Snow Depth

Station Depth Elevation

Earthquake Activity

City Distance Mag. Time & Date
Minimum magnitude displayed is 2.5.

Coastal Water Temperatures

Place Temperature

Stations

Nearby Weather Stations

Station Location Temp. Windchill Dew Point Humidity Wind Precip. Elev Updated Type
                   

Watches & Warnings

There are currently no watches in effect.